Terminal Aerodrome Forecast
Issued by NWS Austin/San Antonio, TX

Home | Current Version | Previous Version | Text Only | Print | Product List | Glossary On
Versions: 1 2 3 4 5 6 7 8 9 10 11 12 13 14 15 16 17 18 19 20 21 22 23
000
FTUS44 KEWX 291726
TAFDRT
TAF
KDRT 291726Z 2918/3018 12007KT P6SM SCT025 SCT250
     FM292000 14010KT P6SM SCT050 SCT250
     FM300100 10007KT P6SM FEW050 SCT250
     FM301200 10006KT P6SM BKN012
     FM301600 12007KT P6SM BKN018=

USA.gov is the U.S. government's official web portal to all federal, state and local government web resources and services.